createdAt,value
2022-11-18T00:01:46.045Z,17.25
2022-11-18T00:04:47.643Z,16.08
2022-11-18T00:07:49.334Z,16.15
2022-11-18T00:10:51.254Z,17.00
2022-11-18T00:14:11.255Z,15.90
2022-11-18T00:17:13.031Z,16.83
2022-11-18T00:20:14.979Z,16.67
2022-11-18T00:23:16.574Z,16.45
2022-11-18T00:26:18.143Z,16.15
2022-11-18T00:29:21.092Z,17.25
2022-11-18T00:32:22.836Z,17.55
2022-11-18T00:35:24.461Z,14.90
2022-11-18T00:42:05.740Z,14.75
2022-11-18T00:45:07.597Z,17.25
2022-11-18T00:48:09.186Z,16.42
2022-11-18T00:51:16.500Z,17.10
2022-11-18T00:54:18.106Z,17.20
2022-11-18T00:57:19.733Z,16.37
2022-11-18T01:00:21.479Z,11.15
2022-11-18T01:03:23.187Z,10.73
2022-11-18T01:06:24.962Z,9.55
2022-11-18T01:09:26.597Z,9.30
2022-11-18T01:12:51.463Z,10.45
2022-11-18T01:15:58.107Z,10.00
2022-11-18T01:18:59.649Z,10.00
2022-11-18T01:22:03.252Z,9.02
2022-11-18T01:25:05.117Z,8.65
2022-11-18T01:28:06.994Z,8.55
2022-11-18T01:31:11.559Z,8.57
2022-11-18T01:34:13.153Z,8.20
2022-11-18T01:37:14.788Z,9.55
2022-11-18T01:40:16.403Z,9.02
2022-11-18T01:43:20.829Z,9.68
2022-11-18T01:46:24.712Z,10.00
2022-11-18T01:49:26.461Z,9.00
2022-11-18T01:52:29.431Z,9.15
2022-11-18T01:55:35.686Z,9.68
2022-11-18T01:58:41.469Z,9.20
2022-11-18T02:01:43.199Z,8.75
2022-11-18T02:04:48.828Z,9.40
2022-11-18T02:07:53.204Z,8.80
2022-11-18T02:10:54.985Z,9.20
2022-11-18T02:13:58.534Z,8.63
2022-11-18T02:17:29.394Z,7.97
2022-11-18T02:20:44.170Z,8.90
2022-11-18T02:24:17.596Z,8.38
2022-11-18T02:27:40.747Z,8.70
2022-11-18T02:31:07.902Z,8.35
2022-11-18T02:34:18.367Z,9.23
2022-11-18T02:37:31.394Z,8.48
2022-11-18T02:40:38.254Z,8.65
2022-11-18T02:44:01.412Z,8.93
2022-11-18T02:47:07.943Z,8.85
2022-11-18T02:50:32.429Z,8.68
2022-11-18T02:53:51.156Z,9.07
2022-11-18T02:57:22.025Z,8.80
2022-11-18T03:00:44.881Z,9.23
2022-11-18T03:03:47.441Z,8.93
2022-11-18T03:07:29.832Z,8.93
2022-11-18T03:10:55.765Z,10.30
2022-11-18T03:14:32.326Z,8.90
2022-11-18T03:18:04.605Z,9.68
2022-11-18T03:21:31.553Z,9.98
2022-11-18T03:24:56.320Z,9.68
2022-11-18T03:28:45.479Z,10.15
2022-11-18T03:32:14.521Z,10.55
2022-11-18T03:35:24.404Z,10.43
2022-11-18T03:38:48.044Z,10.80
2022-11-18T03:42:51.140Z,10.63
2022-11-18T03:46:17.457Z,10.55
2022-11-18T03:49:41.227Z,10.82
2022-11-18T03:53:08.052Z,11.45
2022-11-18T03:56:30.937Z,10.45
2022-11-18T04:00:03.608Z,10.60
2022-11-18T04:03:19.944Z,10.88
2022-11-18T04:06:49.565Z,10.27
2022-11-18T04:10:20.961Z,11.73
2022-11-18T04:13:29.811Z,10.02
2022-11-18T04:16:53.159Z,11.73
2022-11-18T04:19:57.453Z,10.75
2022-11-18T04:23:01.828Z,10.48
2022-11-18T04:26:20.643Z,10.73
2022-11-18T04:29:45.688Z,12.50
2022-11-18T04:32:51.694Z,12.32
2022-11-18T04:36:20.116Z,11.93
2022-11-18T04:39:21.763Z,12.18
2022-11-18T04:42:44.433Z,12.32
2022-11-18T04:45:46.102Z,11.95
2022-11-18T04:48:59.405Z,11.93
2022-11-18T04:52:20.542Z,11.93
2022-11-18T04:55:22.239Z,11.52
2022-11-18T04:58:29.196Z,11.80
2022-11-18T05:01:31.617Z,10.68
2022-11-18T05:04:34.939Z,11.55
2022-11-18T05:07:37.047Z,9.88
2022-11-18T05:10:40.961Z,11.55
2022-11-18T05:13:42.731Z,10.32
2022-11-18T05:16:58.209Z,10.13
2022-11-18T05:20:00.341Z,11.10
2022-11-18T05:23:13.648Z,11.27
2022-11-18T05:26:28.184Z,9.50
2022-11-18T05:29:48.559Z,10.20
2022-11-18T05:32:50.662Z,10.15
2022-11-18T05:36:10.079Z,11.43
2022-11-18T05:39:12.218Z,11.57
2022-11-18T05:42:59.615Z,10.77
2022-11-18T05:46:16.576Z,11.07
2022-11-18T05:49:38.330Z,11.07
2022-11-18T05:53:06.620Z,11.88
2022-11-18T05:56:29.754Z,9.55
2022-11-18T06:03:00.480Z,8.80
2022-11-18T06:06:20.446Z,10.88
2022-11-18T06:09:39.430Z,9.75
2022-11-18T06:12:45.903Z,11.30
2022-11-18T06:15:59.831Z,11.50
2022-11-18T06:19:13.676Z,11.57
2022-11-18T06:22:28.337Z,10.45
2022-11-18T06:25:30.326Z,11.18
2022-11-18T06:28:47.628Z,11.35
2022-11-18T06:31:49.610Z,10.38
2022-11-18T06:34:51.227Z,11.43
2022-11-18T06:37:52.910Z,10.80
2022-11-18T06:40:58.325Z,11.10
2022-11-18T06:43:59.952Z,11.38
2022-11-18T06:47:02.637Z,10.35
2022-11-18T06:50:04.712Z,10.90
2022-11-18T06:53:06.284Z,11.35
2022-11-18T06:56:10.953Z,10.40
2022-11-18T06:59:12.953Z,10.75
2022-11-18T07:02:14.947Z,11.55
2022-11-18T07:05:16.601Z,12.77
2022-11-18T07:08:18.200Z,11.68
2022-11-18T07:11:22.641Z,10.90
2022-11-18T07:14:24.216Z,13.00
2022-11-18T07:17:25.851Z,11.40
2022-11-18T07:20:27.422Z,12.95
2022-11-18T07:23:30.548Z,13.93
2022-11-18T07:26:32.156Z,39.10
2022-11-18T07:29:33.728Z,14.15
2022-11-18T07:32:35.388Z,11.85
2022-11-18T07:35:36.985Z,10.38
2022-11-18T07:38:38.953Z,10.98
2022-11-18T07:41:41.331Z,11.68
2022-11-18T07:44:43.221Z,10.30
2022-11-18T07:47:44.848Z,10.18
2022-11-18T07:50:47.376Z,11.20
2022-11-18T07:53:49.390Z,12.37
2022-11-18T07:56:50.989Z,12.30
2022-11-18T07:59:52.552Z,12.55
2022-11-18T08:02:54.130Z,13.35
2022-11-18T08:05:59.863Z,12.45
2022-11-18T08:09:01.730Z,12.70
2022-11-18T08:12:03.438Z,13.35
2022-11-18T08:15:05.353Z,13.07
2022-11-18T08:18:12.398Z,11.80
2022-11-18T08:21:20.373Z,11.82
2022-11-18T08:24:22.093Z,12.77
2022-11-18T08:27:23.659Z,14.10
2022-11-18T08:30:25.293Z,13.98
2022-11-18T08:33:27.387Z,13.65
2022-11-18T08:36:31.538Z,14.60
2022-11-18T08:39:33.137Z,13.02
2022-11-18T08:42:34.830Z,12.88
2022-11-18T08:45:40.861Z,15.35
2022-11-18T08:48:42.461Z,13.50
2022-11-18T08:51:44.057Z,13.93
2022-11-18T08:54:45.628Z,14.50
2022-11-18T08:57:47.941Z,15.70
2022-11-18T09:00:49.822Z,15.40
2022-11-18T09:03:51.974Z,14.50
2022-11-18T09:06:53.716Z,13.85
2022-11-18T09:09:55.336Z,13.88
2022-11-18T09:13:18.091Z,14.87
2022-11-18T09:16:21.256Z,14.65
2022-11-18T09:22:48.681Z,13.62
2022-11-18T09:25:59.706Z,14.73
2022-11-18T09:29:01.284Z,15.23
2022-11-18T09:32:02.887Z,15.60
2022-11-18T09:35:04.962Z,13.68
2022-11-18T09:38:06.632Z,12.43
2022-11-18T09:41:53.817Z,12.15
2022-11-18T09:45:24.895Z,13.55
2022-11-18T09:48:48.166Z,13.10
2022-11-18T09:51:52.351Z,11.80
2022-11-18T09:54:55.844Z,10.10
2022-11-18T09:57:59.446Z,9.68
2022-11-18T10:01:02.676Z,8.52
2022-11-18T10:04:04.466Z,8.25
2022-11-18T10:07:15.601Z,8.65
2022-11-18T10:10:22.789Z,9.30
2022-11-18T10:13:36.755Z,7.18
2022-11-18T10:16:39.448Z,8.30
2022-11-18T10:19:52.204Z,9.00
2022-11-18T10:23:05.426Z,7.53
2022-11-18T10:26:07.030Z,8.15
2022-11-18T10:29:10.920Z,8.48
2022-11-18T10:32:15.741Z,9.80
2022-11-18T10:35:37.076Z,9.00
2022-11-18T10:38:39.313Z,8.07
2022-11-18T10:41:50.085Z,11.98
2022-11-18T10:44:51.723Z,10.13
2022-11-18T10:48:14.965Z,8.35
2022-11-18T10:51:25.099Z,8.20
2022-11-18T10:54:26.713Z,8.93
2022-11-18T10:57:34.907Z,9.02
2022-11-18T11:00:41.335Z,9.50
2022-11-18T11:03:51.350Z,9.48
2022-11-18T11:06:53.874Z,8.73
2022-11-18T11:10:01.480Z,8.48
2022-11-18T11:16:23.517Z,7.10
2022-11-18T11:20:11.140Z,7.37
2022-11-18T11:23:17.750Z,6.07
2022-11-18T11:30:21.794Z,5.62
2022-11-18T11:33:32.923Z,6.25
2022-11-18T11:36:58.261Z,7.62
2022-11-18T11:40:29.350Z,6.62
2022-11-18T11:43:48.970Z,6.00
2022-11-18T11:47:29.222Z,7.07
2022-11-18T11:51:01.573Z,13.07
2022-11-18T11:54:14.909Z,16.37
2022-11-18T11:57:55.265Z,8.00
2022-11-18T12:01:26.043Z,13.07
2022-11-18T12:04:42.943Z,10.35
2022-11-18T12:07:54.006Z,8.57
2022-11-18T12:11:26.870Z,8.88
2022-11-18T12:14:41.012Z,8.00
2022-11-18T12:17:55.813Z,8.27
2022-11-18T12:20:57.569Z,8.05
2022-11-18T12:24:17.306Z,5.72
2022-11-18T12:27:24.786Z,6.95
2022-11-18T12:33:27.987Z,7.85
2022-11-18T12:36:35.265Z,7.70
2022-11-18T12:39:36.759Z,5.47
2022-11-18T12:43:03.437Z,6.72
2022-11-18T12:46:05.063Z,6.18
2022-11-18T12:49:22.010Z,6.35
2022-11-18T12:52:29.608Z,5.75
2022-11-18T12:55:33.284Z,5.75
2022-11-18T12:58:35.251Z,4.37
2022-11-18T13:01:36.849Z,3.92
2022-11-18T13:04:45.009Z,3.30
2022-11-18T13:08:14.451Z,3.28
2022-11-18T13:11:37.561Z,3.77
2022-11-18T13:14:59.857Z,3.75
2022-11-18T13:18:27.837Z,3.95
2022-11-18T13:21:48.693Z,3.72
2022-11-18T13:24:53.100Z,4.68
2022-11-18T13:28:28.227Z,4.70
2022-11-18T13:31:42.739Z,5.55
2022-11-18T13:34:53.464Z,7.47
2022-11-18T13:38:02.282Z,6.07
2022-11-18T13:41:22.544Z,5.03
2022-11-18T13:44:27.064Z,7.80
2022-11-18T13:47:46.191Z,4.47
2022-11-18T13:50:53.989Z,44.63
2022-11-18T13:53:55.791Z,17.27
2022-11-18T13:56:57.780Z,11.32
2022-11-18T14:00:05.523Z,14.30
2022-11-18T14:03:32.498Z,12.85
2022-11-18T14:06:35.363Z,11.85
2022-11-18T14:09:37.029Z,12.98
2022-11-18T14:12:41.505Z,14.55
2022-11-18T14:15:44.250Z,12.43
2022-11-18T14:18:48.604Z,12.05
2022-11-18T14:21:50.185Z,8.35
2022-11-18T14:25:05.004Z,10.57
2022-11-18T14:28:12.508Z,23.33
2022-11-18T14:34:26.334Z,10.55
2022-11-18T14:37:28.061Z,11.02
2022-11-18T14:40:29.692Z,7.87
2022-11-18T14:43:31.477Z,7.40
2022-11-18T14:46:33.933Z,5.25
2022-11-18T14:49:36.521Z,8.32
2022-11-18T14:52:38.179Z,5.43
2022-11-18T14:55:41.229Z,5.00
2022-11-18T14:58:42.858Z,5.32
2022-11-18T15:01:45.273Z,5.43
2022-11-18T15:04:48.394Z,4.85
2022-11-18T15:07:50.070Z,4.30
2022-11-18T15:10:51.719Z,4.28
2022-11-18T15:13:53.321Z,4.43
2022-11-18T15:16:54.930Z,7.97
2022-11-18T15:19:56.831Z,9.30
2022-11-18T15:22:58.603Z,7.15
2022-11-18T15:26:00.276Z,6.28
2022-11-18T15:29:02.054Z,6.05
2022-11-18T15:32:05.354Z,5.57
2022-11-18T15:35:07.323Z,5.53
2022-11-18T15:38:12.138Z,5.55
2022-11-18T15:41:22.185Z,6.70
2022-11-18T15:44:24.701Z,8.57
2022-11-18T15:47:26.285Z,8.30
2022-11-18T15:50:27.919Z,9.52
2022-11-18T15:53:29.536Z,7.20
2022-11-18T15:56:31.258Z,10.55
2022-11-18T15:59:33.105Z,9.18
2022-11-18T16:02:34.861Z,10.40
2022-11-18T16:05:36.730Z,8.73
2022-11-18T16:08:38.336Z,9.82
2022-11-18T16:11:58.614Z,12.60
2022-11-18T16:15:18.854Z,13.77
2022-11-18T16:18:20.442Z,10.73
2022-11-18T16:21:22.870Z,11.57
2022-11-18T16:24:27.145Z,14.35
2022-11-18T16:27:31.851Z,10.80
2022-11-18T16:30:52.304Z,13.23
2022-11-18T16:33:53.958Z,12.75
2022-11-18T16:36:57.971Z,9.30
2022-11-18T16:39:59.559Z,8.90
2022-11-18T16:43:01.165Z,20.42
2022-11-18T16:46:05.588Z,9.18
2022-11-18T16:49:14.149Z,11.70
2022-11-18T16:52:15.748Z,10.48
2022-11-18T16:55:17.349Z,8.57
2022-11-18T16:58:18.912Z,9.23
2022-11-18T17:01:24.795Z,7.85
2022-11-18T17:04:30.450Z,8.48
2022-11-18T17:07:38.089Z,8.93
2022-11-18T17:10:40.254Z,8.90
2022-11-18T17:13:42.352Z,8.70
2022-11-18T17:16:44.005Z,12.45
2022-11-18T17:19:45.946Z,8.07
2022-11-18T17:22:47.569Z,8.93
2022-11-18T17:25:49.708Z,9.45
2022-11-18T17:28:51.929Z,7.55
2022-11-18T17:31:54.518Z,10.50
2022-11-18T17:34:56.388Z,16.87
2022-11-18T17:37:58.326Z,15.98
2022-11-18T17:41:00.329Z,13.52
2022-11-18T17:44:04.016Z,11.57
2022-11-18T17:47:05.689Z,13.25
2022-11-18T17:50:07.750Z,11.90
2022-11-18T17:53:09.309Z,11.95
2022-11-18T17:56:13.614Z,11.18
2022-11-18T17:59:17.314Z,10.05
2022-11-18T18:02:21.770Z,10.80
2022-11-18T18:05:23.482Z,9.45
2022-11-18T18:08:25.059Z,12.20
2022-11-18T18:11:27.631Z,9.57
2022-11-18T18:14:29.663Z,9.95
2022-11-18T18:17:31.723Z,9.70
2022-11-18T18:20:34.926Z,9.43
2022-11-18T18:23:36.801Z,8.98
2022-11-18T18:26:38.681Z,7.65
2022-11-18T18:29:40.633Z,7.18
2022-11-18T18:32:45.814Z,7.22
2022-11-18T18:38:52.987Z,6.53
2022-11-18T18:41:54.898Z,5.90
2022-11-18T18:45:15.368Z,5.32
2022-11-18T18:48:17.203Z,5.90
2022-11-18T18:51:19.017Z,7.03
2022-11-18T18:54:21.213Z,6.18
2022-11-18T18:57:23.178Z,5.70
2022-11-18T19:00:25.044Z,6.57
2022-11-18T19:03:27.142Z,5.60
2022-11-18T19:09:58.174Z,6.65
2022-11-18T19:13:00.254Z,6.10
2022-11-18T19:16:06.577Z,6.82
2022-11-18T19:19:10.651Z,6.35
2022-11-18T19:22:14.743Z,6.07
2022-11-18T19:25:16.735Z,10.55
2022-11-18T19:28:18.598Z,10.25
2022-11-18T19:31:20.797Z,11.90
2022-11-18T19:34:22.475Z,14.60
2022-11-18T19:37:25.684Z,16.70
2022-11-18T19:40:27.750Z,14.68
2022-11-18T19:43:30.656Z,6.75
2022-11-18T19:46:32.873Z,5.10
2022-11-18T19:49:35.042Z,5.12
2022-11-18T19:52:36.849Z,5.43
2022-11-18T19:55:38.750Z,5.35
2022-11-18T19:58:42.648Z,5.60
2022-11-18T20:01:44.959Z,6.22
2022-11-18T20:05:06.913Z,7.93
2022-11-18T20:08:08.518Z,6.57
2022-11-18T20:11:13.125Z,7.50
2022-11-18T20:14:14.835Z,8.35
2022-11-18T20:17:16.447Z,8.10
2022-11-18T20:20:18.536Z,7.97
2022-11-18T20:23:20.669Z,6.75
2022-11-18T20:26:25.030Z,8.20
2022-11-18T20:29:27.087Z,6.22
2022-11-18T20:32:29.085Z,6.78
2022-11-18T20:35:32.066Z,5.53
2022-11-18T20:38:34.993Z,4.78
2022-11-18T20:41:37.166Z,6.30
2022-11-18T20:44:39.779Z,4.57
2022-11-18T20:47:41.496Z,4.97
2022-11-18T20:50:43.073Z,5.55
2022-11-18T20:53:45.565Z,5.65
2022-11-18T20:56:47.460Z,4.57
2022-11-18T20:59:49.178Z,5.35
2022-11-18T21:02:50.984Z,4.12
2022-11-18T21:05:52.982Z,4.40
2022-11-18T21:08:56.648Z,4.60
2022-11-18T21:11:59.664Z,5.32
2022-11-18T21:15:01.304Z,5.22
2022-11-18T21:18:03.286Z,4.78
2022-11-18T21:21:24.152Z,5.45
2022-11-18T21:24:29.788Z,5.93
2022-11-18T21:27:32.420Z,4.25
2022-11-18T21:30:35.875Z,4.07
2022-11-18T21:33:37.487Z,6.70
2022-11-18T21:36:45.094Z,4.07
2022-11-18T21:39:48.414Z,4.68
2022-11-18T21:42:52.667Z,3.72
2022-11-18T21:45:54.261Z,4.03
2022-11-18T21:49:00.147Z,3.55
2022-11-18T21:52:02.135Z,4.62
2022-11-18T21:55:03.985Z,3.45
2022-11-18T21:58:05.547Z,3.30
2022-11-18T22:01:13.400Z,3.75
2022-11-18T22:04:34.974Z,3.87
2022-11-18T22:07:36.637Z,4.03
2022-11-18T22:10:38.260Z,4.00
2022-11-18T22:13:40.384Z,4.00
2022-11-18T22:16:41.967Z,3.87
2022-11-18T22:19:43.649Z,4.30
2022-11-18T22:22:45.269Z,4.12
2022-11-18T22:25:46.841Z,4.80
2022-11-18T22:28:53.647Z,4.57
2022-11-18T22:31:55.263Z,6.70
2022-11-18T22:34:57.017Z,5.20
2022-11-18T22:37:58.585Z,4.60
2022-11-18T22:41:06.007Z,4.00
2022-11-18T22:44:08.924Z,4.40
2022-11-18T22:47:10.518Z,4.50
2022-11-18T22:50:12.124Z,4.75
2022-11-18T22:53:13.889Z,4.57
2022-11-18T22:56:16.557Z,4.75
2022-11-18T22:59:18.543Z,5.93
2022-11-18T23:02:20.391Z,12.98
2022-11-18T23:05:22.038Z,4.75
2022-11-18T23:08:24.600Z,4.50
2022-11-18T23:11:44.831Z,4.85
2022-11-18T23:14:46.512Z,4.65
2022-11-18T23:17:48.097Z,4.65
2022-11-18T23:20:49.672Z,4.50
2022-11-18T23:23:51.264Z,3.97
2022-11-18T23:26:52.887Z,4.10
2022-11-18T23:29:54.462Z,4.18
2022-11-18T23:32:56.031Z,4.32
2022-11-18T23:35:57.855Z,4.57
2022-11-18T23:38:59.430Z,4.80
2022-11-18T23:42:01.004Z,4.85
2022-11-18T23:45:05.412Z,4.93
2022-11-18T23:48:07.243Z,4.85
2022-11-18T23:51:14.408Z,4.53
2022-11-18T23:54:16.014Z,6.03
2022-11-18T23:57:17.854Z,8.25
